Bei Facebook empfehlenBei Twitter postenGoogle plusPinterest

Das Wetter im Erzgebirge am 23.12.2014

Wetter und Klima am 23.12.2014 Holzhau im Erzgebirge (630m ü.NN)
Letzte gemessene Temperatur und Uhrzeit der Messung23:45:00 Uhr6.50 °C
Temperatur (Maximum / Höchstwert) und Uhrzeit der Messung22:45:00 Uhr7.10 °C
Temperatur (Minimum / Tiefstwert) und Uhrzeit der Messung02:00:005.90 °C
Errechneter Absolutwert der Temperaturschwankungen zwischen Tmin und Tmax des Tages1.20 K
Errechnete Tagesmitteltemperatur6.68229 °C
Gesamt - Niederschlag des Tages (in flüssiger Form)0.00 Liter / m²
Luftdruck (Maximum / Höchstwert) und Zeitpunkt der Messung12:30:00 Uhr1015.20 hPa
Luftdruck (Minimum / Tiefstwert) und Zeitpunkt der Messung03:45:00 Uhr1012.90 hPa
Errechneter Absolutwert der Luftdruckschwankungen des Tages2.30 hPa
Höchste gemessene Windgeschwindigkeit und Uhrzeit der Messung14:30:00 Uhr32.40 km/h
Errechnete Windhäufigkeit in Relation zu den Messwerten des Tages63.54167 %
Niedrigste Windkühle (Windchill) und Zeitpunkt der Messung14:30:00 Uhr2.20 °C
Taupunkt (Maximum / Höchstwert) und Uhrzeit der Messung09:45:00 Uhr5.10 °C
Taupunkt (Minimum / Tiefstwert) und Uhrzeit der Messung17:30:003.90 °C
Anzahl der automatisch eingelesenen Messwerte 96

Detaillierte Wetter- und Klima- Messwerte für den 23.12.2014 in Holzhau im Erzgebirge (630m ü.NN)
ZeitTemperaturLuftdruckRel. LuftfeuchteWindWindrichtungWindchillTaupunktNiederschlag l/m²
23:45:006.50 °C1014.90 hPa85.00 %8.64 km/hWSW4.70 °C4.20 °C 
23:30:006.80 °C1014.90 hPa84.00 %12.24 km/hWNW4.40 °C4.30 °C 
23:15:006.90 °C1014.90 hPa83.00 %7.20 km/hW5.60 °C4.20 °C 
23:00:007.00 °C1014.90 hPa82.00 %5.40 km/hWSW6.20 °C4.10 °C 
22:45:007.10 °C1014.70 hPa82.00 %17.64 km/hNNW4.00 °C4.20 °C 
22:30:007.10 °C1014.70 hPa82.00 %5.40 km/hSW6.30 °C4.20 °C 
22:15:007.10 °C1014.50 hPa83.00 %7.92 km/hWNW5.60 °C4.40 °C 
22:00:007.00 °C1014.60 hPa83.00 %6.84 km/hWSW5.80 °C4.30 °C 
21:45:006.90 °C1014.70 hPa84.00 %8.64 km/hNW5.20 °C4.40 °C 
21:30:006.90 °C1014.40 hPa84.00 %13.32 km/hWNW4.30 °C4.40 °C 
21:15:006.90 °C1014.50 hPa84.00 %8.28 km/hWNW5.30 °C4.40 °C 
21:00:006.90 °C1014.30 hPa84.00 %5.04 km/hNNW6.20 °C4.40 °C 
20:45:006.90 °C1014.40 hPa83.00 %3.96 km/hW6.90 °C4.20 °C 
20:30:006.80 °C1014.40 hPa84.00 %9.72 km/hWNW4.90 °C4.30 °C 
20:15:006.80 °C1014.40 hPa84.00 %2.52 km/hWNW6.80 °C4.30 °C 
20:00:006.80 °C1014.30 hPa84.00 %3.96 km/hNW6.80 °C4.30 °C 
19:45:006.80 °C1014.50 hPa84.00 %4.30 °C 
19:30:006.80 °C1014.50 hPa84.00 %4.30 °C 
19:15:006.80 °C1014.40 hPa84.00 %14.04 km/hWNW4.10 °C4.30 °C 
19:00:006.80 °C1014.50 hPa84.00 %4.68 km/hNW6.80 °C4.30 °C 
18:45:006.80 °C1014.50 hPa84.00 %8.64 km/hNW5.10 °C4.30 °C 
18:30:006.60 °C1014.20 hPa85.00 %4.30 °C 
18:15:006.60 °C1014.00 hPa85.00 %0.36 km/hW6.60 °C4.30 °C 
18:00:006.50 °C1014.20 hPa84.00 %4.00 °C 
17:45:006.60 °C1014.20 hPa84.00 %9.36 km/hSW4.70 °C4.10 °C 
17:30:006.60 °C1014.20 hPa83.00 %3.90 °C 
17:15:006.60 °C1014.10 hPa83.00 %3.90 °C 
17:00:006.70 °C1014.10 hPa83.00 %7.92 km/hWSW5.20 °C4.00 °C 
16:45:006.60 °C1014.10 hPa83.00 %18.00 km/hSSW3.30 °C3.90 °C 
16:30:006.60 °C1014.00 hPa83.00 %3.90 °C 
16:15:006.60 °C1014.30 hPa83.00 %7.20 km/hWNW5.20 °C3.90 °C 
16:00:006.60 °C1013.80 hPa83.00 %6.48 km/hW5.40 °C3.90 °C 
15:45:006.60 °C1013.80 hPa83.00 %7.20 km/hSW5.20 °C3.90 °C 
15:30:006.60 °C1014.00 hPa83.00 %9.72 km/hW4.60 °C3.90 °C 
15:15:006.60 °C1014.10 hPa83.00 %3.90 °C 
15:00:006.70 °C1014.00 hPa83.00 %4.00 °C 
14:45:006.70 °C1013.90 hPa82.00 %3.90 °C 
14:30:006.80 °C1014.00 hPa82.00 %32.40 km/hWNW2.20 °C3.90 °C 
14:15:006.90 °C1014.10 hPa82.00 %4.00 °C 
14:00:006.90 °C1014.40 hPa82.00 %7.92 km/hWSW5.40 °C4.00 °C 
13:45:006.80 °C1014.40 hPa82.00 %6.12 km/hSW5.80 °C3.90 °C 
13:30:006.90 °C1014.70 hPa82.00 %10.44 km/hW4.80 °C4.00 °C 
13:15:006.90 °C1014.80 hPa82.00 %10.80 km/hW4.80 °C4.00 °C 
13:00:006.90 °C1014.90 hPa82.00 %4.00 °C 
12:45:006.80 °C1015.00 hPa82.00 %0.72 km/hSW6.80 °C3.90 °C 
12:30:006.90 °C1015.20 hPa83.00 %5.04 km/hN6.20 °C4.20 °C 
12:15:006.90 °C1015.10 hPa83.00 %8.28 km/hW5.30 °C4.20 °C 
12:00:007.00 °C1015.00 hPa84.00 %9.72 km/hSW5.10 °C4.50 °C 
11:45:007.00 °C1014.90 hPa85.00 %4.70 °C 
11:30:006.90 °C1014.80 hPa87.00 %4.90 °C 
11:15:006.70 °C1014.90 hPa88.00 %4.90 °C 
11:00:006.80 °C1014.80 hPa88.00 %16.56 km/hNNW3.80 °C5.00 °C 
10:45:006.80 °C1014.70 hPa88.00 %19.08 km/hWNW3.40 °C5.00 °C 
10:30:006.80 °C1014.50 hPa87.00 %4.80 °C 
10:15:006.80 °C1014.40 hPa88.00 %5.00 °C 
10:00:006.80 °C1014.20 hPa87.00 %4.80 °C 
09:45:006.90 °C1014.30 hPa88.00 %5.10 °C 
09:30:006.90 °C1014.30 hPa88.00 %10.08 km/hWNW4.90 °C5.10 °C 
09:15:006.90 °C1014.40 hPa88.00 %5.10 °C 
09:00:006.80 °C1014.40 hPa88.00 %5.00 °C 
08:45:006.80 °C1014.10 hPa89.00 %4.68 km/hWNW6.80 °C5.10 °C 
08:30:006.80 °C1013.80 hPa89.00 %7.56 km/hWSW5.40 °C5.10 °C 
08:15:006.80 °C1013.80 hPa89.00 %5.10 °C 
08:00:006.60 °C1013.70 hPa90.00 %5.04 km/hNW5.90 °C5.10 °C 
07:45:006.60 °C1013.70 hPa90.00 %4.32 km/hW6.60 °C5.10 °C 
07:30:006.50 °C1013.50 hPa89.00 %7.56 km/hW5.00 °C4.80 °C 
07:15:006.50 °C1013.50 hPa90.00 %5.00 °C 
07:00:006.40 °C1013.50 hPa89.00 %4.70 °C 
06:45:006.40 °C1013.40 hPa89.00 %15.48 km/hW3.40 °C4.70 °C 
06:30:006.40 °C1013.40 hPa89.00 %4.70 °C 
06:15:006.50 °C1013.40 hPa89.00 %4.80 °C 
06:00:006.60 °C1013.60 hPa88.00 %4.80 °C 
05:45:006.60 °C1013.40 hPa88.00 %4.80 °C 
05:30:006.70 °C1013.40 hPa87.00 %2.52 km/hWNW6.70 °C4.70 °C 
05:15:006.70 °C1013.30 hPa87.00 %4.70 °C 
05:00:006.70 °C1013.20 hPa87.00 %4.70 °C 
04:45:006.80 °C1013.00 hPa87.00 %4.80 °C 
04:30:006.80 °C1013.20 hPa87.00 %10.44 km/hNNO4.70 °C4.80 °C 
04:15:006.80 °C1013.10 hPa87.00 %7.92 km/hWSW5.30 °C4.80 °C 
04:00:006.80 °C1013.00 hPa87.00 %7.92 km/hWNW5.30 °C4.80 °C 
03:45:006.80 °C1012.90 hPa87.00 %14.76 km/hSW4.00 °C4.80 °C 
03:30:006.70 °C1012.90 hPa87.00 %2.16 km/hWNW6.70 °C4.70 °C 
03:15:006.60 °C1013.20 hPa88.00 %7.20 km/hW5.20 °C4.80 °C 
03:00:006.40 °C1013.30 hPa89.00 %4.70 °C 
02:45:006.20 °C1013.20 hPa90.00 %10.44 km/hNW4.00 °C4.70 °C 
02:30:006.10 °C1013.40 hPa91.00 %7.56 km/hW4.50 °C4.70 °C 
02:15:006.10 °C1013.50 hPa91.00 %9.36 km/hWSW4.10 °C4.70 °C 
02:00:005.90 °C1013.50 hPa91.00 %14.76 km/hW2.90 °C4.50 °C 
01:45:005.90 °C1013.60 hPa91.00 %11.16 km/hW3.50 °C4.50 °C 
01:30:005.90 °C1013.20 hPa91.00 %4.50 °C 
01:15:006.10 °C1013.40 hPa90.00 %8.28 km/hNNW4.40 °C4.60 °C 
01:00:006.30 °C1013.50 hPa89.00 %4.60 °C 
00:45:006.40 °C1013.40 hPa89.00 %13.32 km/hWNW3.70 °C4.70 °C 
00:30:006.40 °C1013.30 hPa88.00 %9.36 km/hSSW4.50 °C4.60 °C 
00:15:006.40 °C1013.50 hPa87.00 %4.40 °C 
00:00:006.50 °C1013.60 hPa87.00 %2.16 km/hNNW6.50 °C4.50 °C 

Permanenter Link zu dieser Seite: Wetter im Erzgebirge am 23.12.2014
Performance-Info: Die Erstellung der Seite / Statistik(en) / Tabelle(n) erforderte 5 Datenbankserver-Abfrage(n) und dauerte 101 Millisekunden. (Dieser Messwert ist von der Gesamt-Auslastung des Servers abhängig.)
Erzgebirge - Wetter | Erzgebirge - Wetter (Mobilgeräte) | Komplette Klimadatenbank